Tucson, Arizona
Current Conditions -  °F | °C
As of 9:58 AM on Sunday 23 Nov 2014 (Local Time) from KDMA Reporting Station
Clear Clear  
Wind Chill: 57°   Ceiling: Unl
Heat Index: 57°   Visibility: 10mi
Dew Point: 31°   Wind: 1mph
Humidity: 37%   Direction: 200°SSW
Pressure: 30.08"   Gusts: NA
Location:  32.22°N, 110.96°W
Report Text: KDMA 231658Z AUTO 20001KT 10SM CLR 14/00 A3008 RMK AO2 SLP170 T01411005 $
Loading
Personal Weather Stations






























Interactive Weather Map New forecast layout! Learn more

10-Day Weather Forecast

Advertisements
Track Severe Weather on mobile